Richmond, VA (23242)

6:26 PM EDT on May 27, 2015 (GMT -0400)
KVARICHM37 | | Change Station
CLOSE
Current Station
Personal Weather Station
Location: Richmond, VA
Elevation: 200 ft
Nearby Weather Stations

Elev 200 ft 37.63 °N, 77.63 °W | Updated 29 seconds ago

Partly Cloudy
Partly Cloudy
81.6 °F
Feels Like 87 °F
N
0.0
Wind Variable Wind from SW
Gusts 4.0 mph

Today
High -- | Low -- °F
--% Chance of Precip.
Yesterday
High -- | Low -- °F
Precip. -- in
5:52 AM 8:22 PM
Waxing Gibbous, 70% visible
Pressure 30.13 in
Visibility 10.0 miles
Clouds Few 4900 ft
Scattered Clouds 10000 ft
Mostly Cloudy 30000 ft
Heat Index 87 °F
Dew Point 74 °F
Humidity 77%
Rainfall 0.11 in
Snow Depth Not available.
UV 1 out of 12
Pollen 7.50 out of 12
Air Quality Not available.
Flu Activity No Activity
METAR KRIC 272154Z 19010KT 10SM FEW049TCU SCT100 BKN300 31/19 A3012 RMK AO2 SLP202 TCU NE-SE T03060189

More Conditions Fewer Conditions

Pressure 30.13 in
Visibility 10.0 miles
Clouds Few 4900 ft
Scattered Clouds 10000 ft
Mostly Cloudy 30000 ft
Heat Index 87 °F
Dew Point 74 °F
Humidity 77%
Rainfall 0.11 in
Snow Depth Not available.
UV 1 out of 12
Pollen 7.50 out of 12
Air Quality Not available.
Flu Activity No Activity
METAR KRIC 272154Z 19010KT 10SM FEW049TCU SCT100 BKN300 31/19 A3012 RMK AO2 SLP202 TCU NE-SE T03060189

More Conditions Fewer Conditions

10-Day Weather Forecast

Almanac

Astronomy

May. 27, 2015 Rise Set
Actual Time
Civil Twilight
Nautical Twilight
Astronomical Twilight
Moon
Length of Visible Light
Length of Day
Tomorrow will be .
, % of the Moon is Illuminated

Today's Extremes

State Highs State Lows

Community

WunderPhotos

Upload Photos

1,824,813 photos uploaded!

WunderBlogs® & News

Nearby

Air Quality

  Air Quality AQ Index Pollutant
Not available.

Snow Depth

Station Depth Elevation

Earthquake Activity

City Distance Mag. Time & Date
Minimum magnitude displayed is 2.5.

Coastal Water Temperatures

Place Temperature

Stations

Nearby Weather Stations

Station Location Temp. Windchill Dew Point Humidity Wind Precip. Elev Updated Type